Cuba, Kansas
Current Conditions -  °F | °C
As of 4:55 AM on Thursday 23 Oct 2014 (Local Time) from KCNK Reporting Station
Overcast Overcast  
Wind Chill: 61°   Ceiling: 1700
Heat Index: 61°   Visibility: 10mi
Dew Point: 60°   Wind: 5mph
Humidity: 97%   Direction: 220°SW
Pressure: 30.04"   Gusts: NA
Location:  39.8°N, 97.46°W
Report Text: KCNK 230955Z AUTO 22004KT 10SM OVC017 16/16 A3004 RMK AO2 SLP163 T01610156
Loading
Personal Weather Stations






























Interactive Weather Map
Tropical Storm Tracking
New forecast layout! Learn more

10-Day Weather Forecast

Advertisements
Track Severe Weather on mobile